sensor_id;sensor_type;location;lat;lon;timestamp;P1;durP1;ratioP1;P2;durP2;ratioP2
73452;SDS011;61687;56.232;43.854;2023-05-10T00:00:16;44.80;;;19.88;;
73452;SDS011;61687;56.232;43.854;2023-05-10T00:02:43;44.85;;;19.83;;
73452;SDS011;61687;56.232;43.854;2023-05-10T00:05:09;35.85;;;19.17;;
73452;SDS011;61687;56.232;43.854;2023-05-10T00:07:35;42.88;;;19.83;;
73452;SDS011;61687;56.232;43.854;2023-05-10T00:10:01;36.05;;;19.30;;
73452;SDS011;61687;56.232;43.854;2023-05-10T00:12:29;42.67;;;20.77;;
73452;SDS011;61687;56.232;43.854;2023-05-10T00:14:55;48.00;;;19.17;;
73452;SDS011;61687;56.232;43.854;2023-05-10T00:17:21;41.25;;;20.35;;
73452;SDS011;61687;56.232;43.854;2023-05-10T00:19:47;46.67;;;19.95;;
73452;SDS011;61687;56.232;43.854;2023-05-10T00:22:13;42.08;;;17.88;;
73452;SDS011;61687;56.232;43.854;2023-05-10T00:24:39;38.00;;;19.23;;
73452;SDS011;61687;56.232;43.854;2023-05-10T00:27:05;37.42;;;18.92;;
73452;SDS011;61687;56.232;43.854;2023-05-10T00:29:31;42.92;;;19.50;;
73452;SDS011;61687;56.232;43.854;2023-05-10T00:31:58;39.67;;;19.02;;
73452;SDS011;61687;56.232;43.854;2023-05-10T00:34:24;42.20;;;20.07;;
73452;SDS011;61687;56.232;43.854;2023-05-10T00:36:50;41.47;;;20.02;;
73452;SDS011;61687;56.232;43.854;2023-05-10T00:39:16;49.92;;;20.75;;
73452;SDS011;61687;56.232;43.854;2023-05-10T00:41:43;38.25;;;18.77;;
73452;SDS011;61687;56.232;43.854;2023-05-10T00:44:09;41.83;;;18.85;;
73452;SDS011;61687;56.232;43.854;2023-05-10T00:46:35;38.20;;;18.40;;
73452;SDS011;61687;56.232;43.854;2023-05-10T00:49:02;40.85;;;19.45;;
73452;SDS011;61687;56.232;43.854;2023-05-10T00:51:28;39.90;;;19.30;;
73452;SDS011;61687;56.232;43.854;2023-05-10T00:53:54;37.85;;;19.02;;
73452;SDS011;61687;56.232;43.854;2023-05-10T00:56:21;41.88;;;21.05;;
73452;SDS011;61687;56.232;43.854;2023-05-10T00:58:48;35.97;;;18.63;;
73452;SDS011;61687;56.232;43.854;2023-05-10T01:01:14;42.63;;;19.73;;
73452;SDS011;61687;56.232;43.854;2023-05-10T01:03:41;46.75;;;19.88;;
73452;SDS011;61687;56.232;43.854;2023-05-10T01:06:08;36.55;;;19.17;;
73452;SDS011;61687;56.232;43.854;2023-05-10T01:08:35;40.10;;;20.75;;
73452;SDS011;61687;56.232;43.854;2023-05-10T01:11:02;44.30;;;20.27;;
73452;SDS011;61687;56.232;43.854;2023-05-10T01:13:36;42.88;;;19.77;;
73452;SDS011;61687;56.232;43.854;2023-05-10T01:16:05;41.13;;;19.13;;
73452;SDS011;61687;56.232;43.854;2023-05-10T01:18:36;41.90;;;20.08;;
73452;SDS011;61687;56.232;43.854;2023-05-10T01:21:22;43.35;;;19.70;;
73452;SDS011;61687;56.232;43.854;2023-05-10T01:24:59;41.65;;;19.85;;
73452;SDS011;61687;56.232;43.854;2023-05-10T01:27:19;40.85;;;19.33;;
73452;SDS011;61687;56.232;43.854;2023-05-10T01:35:28;43.15;;;19.83;;
73452;SDS011;61687;56.232;43.854;2023-05-10T01:40:39;42.72;;;19.13;;
73452;SDS011;61687;56.232;43.854;2023-05-10T01:43:22;38.72;;;19.77;;
73452;SDS011;61687;56.232;43.854;2023-05-10T01:46:09;45.45;;;19.30;;
73452;SDS011;61687;56.232;43.854;2023-05-10T01:48:40;45.67;;;20.63;;
73452;SDS011;61687;56.232;43.854;2023-05-10T01:51:17;41.67;;;19.13;;
73452;SDS011;61687;56.232;43.854;2023-05-10T01:53:48;36.15;;;19.25;;
73452;SDS011;61687;56.232;43.854;2023-05-10T01:56:17;36.95;;;18.45;;
73452;SDS011;61687;56.232;43.854;2023-05-10T01:58:48;44.17;;;19.23;;
73452;SDS011;61687;56.232;43.854;2023-05-10T02:01:17;41.40;;;18.90;;
73452;SDS011;61687;56.232;43.854;2023-05-10T02:03:46;43.37;;;19.57;;
73452;SDS011;61687;56.232;43.854;2023-05-10T02:06:13;37.20;;;19.25;;
73452;SDS011;61687;56.232;43.854;2023-05-10T02:08:40;37.22;;;18.02;;
73452;SDS011;61687;56.232;43.854;2023-05-10T02:11:08;38.13;;;18.98;;
73452;SDS011;61687;56.232;43.854;2023-05-10T02:13:38;37.08;;;18.60;;
73452;SDS011;61687;56.232;43.854;2023-05-10T02:16:05;35.67;;;18.88;;
73452;SDS011;61687;56.232;43.854;2023-05-10T02:18:33;44.40;;;19.58;;
73452;SDS011;61687;56.232;43.854;2023-05-10T02:21:02;43.00;;;20.25;;
73452;SDS011;61687;56.232;43.854;2023-05-10T02:23:29;43.03;;;20.63;;
73452;SDS011;61687;56.232;43.854;2023-05-10T02:25:56;42.42;;;20.25;;
73452;SDS011;61687;56.232;43.854;2023-05-10T02:28:24;41.90;;;18.43;;
73452;SDS011;61687;56.232;43.854;2023-05-10T02:30:51;43.13;;;19.70;;
73452;SDS011;61687;56.232;43.854;2023-05-10T02:33:18;38.42;;;19.15;;
73452;SDS011;61687;56.232;43.854;2023-05-10T02:35:46;42.10;;;19.38;;
73452;SDS011;61687;56.232;43.854;2023-05-10T02:38:13;37.88;;;18.80;;
73452;SDS011;61687;56.232;43.854;2023-05-10T02:40:40;44.37;;;19.47;;
73452;SDS011;61687;56.232;43.854;2023-05-10T02:43:09;39.85;;;19.58;;
73452;SDS011;61687;56.232;43.854;2023-05-10T02:45:38;43.53;;;19.30;;
73452;SDS011;61687;56.232;43.854;2023-05-10T02:48:05;48.20;;;18.30;;
73452;SDS011;61687;56.232;43.854;2023-05-10T02:50:32;61.13;;;20.27;;
73452;SDS011;61687;56.232;43.854;2023-05-10T02:53:00;43.17;;;18.80;;
73452;SDS011;61687;56.232;43.854;2023-05-10T02:55:31;36.58;;;17.25;;
73452;SDS011;61687;56.232;43.854;2023-05-10T02:58:02;41.03;;;18.65;;
73452;SDS011;61687;56.232;43.854;2023-05-10T03:00:29;36.63;;;18.10;;
73452;SDS011;61687;56.232;43.854;2023-05-10T03:02:55;40.45;;;18.58;;
73452;SDS011;61687;56.232;43.854;2023-05-10T03:05:21;42.23;;;17.60;;
73452;SDS011;61687;56.232;43.854;2023-05-10T03:07:47;38.38;;;17.35;;
73452;SDS011;61687;56.232;43.854;2023-05-10T03:10:14;32.35;;;15.27;;
73452;SDS011;61687;56.232;43.854;2023-05-10T03:18:21;26.97;;;12.13;;
73452;SDS011;61687;56.232;43.854;2023-05-10T03:20:49;24.08;;;14.15;;
73452;SDS011;61687;56.232;43.854;2023-05-10T03:23:22;23.63;;;11.75;;
73452;SDS011;61687;56.232;43.854;2023-05-10T03:25:55;23.58;;;11.45;;
73452;SDS011;61687;56.232;43.854;2023-05-10T03:28:22;23.50;;;11.68;;
73452;SDS011;61687;56.232;43.854;2023-05-10T03:30:52;21.03;;;11.80;;
73452;SDS011;61687;56.232;43.854;2023-05-10T03:33:20;21.67;;;9.00;;
73452;SDS011;61687;56.232;43.854;2023-05-10T03:35:46;30.35;;;9.98;;
73452;SDS011;61687;56.232;43.854;2023-05-10T03:38:13;20.88;;;8.57;;
73452;SDS011;61687;56.232;43.854;2023-05-10T03:40:39;14.57;;;8.63;;
73452;SDS011;61687;56.232;43.854;2023-05-10T03:43:06;16.07;;;8.70;;
73452;SDS011;61687;56.232;43.854;2023-05-10T03:45:32;15.57;;;7.43;;
73452;SDS011;61687;56.232;43.854;2023-05-10T03:47:59;13.88;;;7.30;;
73452;SDS011;61687;56.232;43.854;2023-05-10T03:50:25;13.65;;;7.18;;
73452;SDS011;61687;56.232;43.854;2023-05-10T03:52:53;17.42;;;8.00;;
73452;SDS011;61687;56.232;43.854;2023-05-10T03:55:19;19.83;;;8.30;;
73452;SDS011;61687;56.232;43.854;2023-05-10T03:57:45;18.00;;;7.93;;
73452;SDS011;61687;56.232;43.854;2023-05-10T04:00:11;18.05;;;9.15;;
73452;SDS011;61687;56.232;43.854;2023-05-10T04:02:41;16.83;;;8.30;;
73452;SDS011;61687;56.232;43.854;2023-05-10T04:05:10;18.05;;;8.57;;
73452;SDS011;61687;56.232;43.854;2023-05-10T04:07:36;17.40;;;8.30;;
73452;SDS011;61687;56.232;43.854;2023-05-10T04:10:02;18.02;;;7.85;;
73452;SDS011;61687;56.232;43.854;2023-05-10T04:12:30;15.98;;;8.82;;
73452;SDS011;61687;56.232;43.854;2023-05-10T04:14:56;27.52;;;8.25;;
73452;SDS011;61687;56.232;43.854;2023-05-10T04:17:22;20.80;;;8.35;;
73452;SDS011;61687;56.232;43.854;2023-05-10T04:19:48;28.03;;;8.20;;
73452;SDS011;61687;56.232;43.854;2023-05-10T04:22:14;22.17;;;8.60;;
73452;SDS011;61687;56.232;43.854;2023-05-10T04:24:41;17.85;;;8.55;;
73452;SDS011;61687;56.232;43.854;2023-05-10T04:27:07;18.63;;;8.23;;
73452;SDS011;61687;56.232;43.854;2023-05-10T04:29:33;19.07;;;8.30;;
73452;SDS011;61687;56.232;43.854;2023-05-10T04:31:59;12.02;;;6.85;;
73452;SDS011;61687;56.232;43.854;2023-05-10T04:34:25;10.52;;;6.10;;
73452;SDS011;61687;56.232;43.854;2023-05-10T04:36:51;15.80;;;7.55;;
73452;SDS011;61687;56.232;43.854;2023-05-10T04:39:17;17.23;;;6.53;;
73452;SDS011;61687;56.232;43.854;2023-05-10T04:41:43;21.50;;;7.60;;
73452;SDS011;61687;56.232;43.854;2023-05-10T04:44:09;14.98;;;6.82;;
73452;SDS011;61687;56.232;43.854;2023-05-10T04:46:35;16.95;;;6.68;;
73452;SDS011;61687;56.232;43.854;2023-05-10T04:49:01;15.30;;;5.87;;
73452;SDS011;61687;56.232;43.854;2023-05-10T04:51:27;12.95;;;4.63;;
73452;SDS011;61687;56.232;43.854;2023-05-10T04:53:53;10.82;;;5.40;;
73452;SDS011;61687;56.232;43.854;2023-05-10T04:56:19;13.77;;;5.95;;
73452;SDS011;61687;56.232;43.854;2023-05-10T04:58:45;15.23;;;6.70;;
73452;SDS011;61687;56.232;43.854;2023-05-10T05:01:11;15.52;;;6.32;;
73452;SDS011;61687;56.232;43.854;2023-05-10T05:03:37;17.55;;;6.63;;
73452;SDS011;61687;56.232;43.854;2023-05-10T05:06:03;21.67;;;6.43;;
73452;SDS011;61687;56.232;43.854;2023-05-10T05:08:30;19.37;;;5.20;;
73452;SDS011;61687;56.232;43.854;2023-05-10T05:10:56;11.43;;;5.25;;
73452;SDS011;61687;56.232;43.854;2023-05-10T05:13:22;12.73;;;5.28;;
73452;SDS011;61687;56.232;43.854;2023-05-10T05:15:48;14.82;;;5.47;;
73452;SDS011;61687;56.232;43.854;2023-05-10T05:18:15;10.27;;;4.68;;
73452;SDS011;61687;56.232;43.854;2023-05-10T05:20:41;13.17;;;5.00;;
73452;SDS011;61687;56.232;43.854;2023-05-10T05:23:07;20.88;;;4.18;;
73452;SDS011;61687;56.232;43.854;2023-05-10T05:25:32;14.73;;;4.63;;
73452;SDS011;61687;56.232;43.854;2023-05-10T05:27:58;8.25;;;4.57;;
73452;SDS011;61687;56.232;43.854;2023-05-10T05:30:24;12.23;;;4.30;;
73452;SDS011;61687;56.232;43.854;2023-05-10T05:32:50;12.10;;;4.55;;
73452;SDS011;61687;56.232;43.854;2023-05-10T05:35:16;17.15;;;4.53;;
73452;SDS011;61687;56.232;43.854;2023-05-10T05:37:42;9.50;;;4.23;;
73452;SDS011;61687;56.232;43.854;2023-05-10T05:40:11;9.57;;;4.00;;
73452;SDS011;61687;56.232;43.854;2023-05-10T05:42:38;12.02;;;4.22;;
73452;SDS011;61687;56.232;43.854;2023-05-10T05:45:04;8.63;;;4.57;;
73452;SDS011;61687;56.232;43.854;2023-05-10T05:47:33;10.13;;;4.73;;
73452;SDS011;61687;56.232;43.854;2023-05-10T05:49:59;9.75;;;5.38;;
73452;SDS011;61687;56.232;43.854;2023-05-10T05:52:25;8.77;;;3.90;;
73452;SDS011;61687;56.232;43.854;2023-05-10T05:54:51;7.85;;;4.60;;
73452;SDS011;61687;56.232;43.854;2023-05-10T05:57:17;7.73;;;4.40;;
73452;SDS011;61687;56.232;43.854;2023-05-10T05:59:43;12.05;;;5.05;;
73452;SDS011;61687;56.232;43.854;2023-05-10T06:02:10;9.40;;;5.40;;
73452;SDS011;61687;56.232;43.854;2023-05-10T06:04:36;10.65;;;5.10;;
73452;SDS011;61687;56.232;43.854;2023-05-10T06:07:02;10.43;;;5.18;;
73452;SDS011;61687;56.232;43.854;2023-05-10T06:09:28;8.07;;;5.10;;
73452;SDS011;61687;56.232;43.854;2023-05-10T06:11:54;12.27;;;5.43;;
73452;SDS011;61687;56.232;43.854;2023-05-10T06:14:21;10.85;;;5.65;;
73452;SDS011;61687;56.232;43.854;2023-05-10T06:16:47;9.65;;;4.80;;
73452;SDS011;61687;56.232;43.854;2023-05-10T06:19:12;24.47;;;5.27;;
73452;SDS011;61687;56.232;43.854;2023-05-10T06:21:38;8.45;;;3.72;;
73452;SDS011;61687;56.232;43.854;2023-05-10T06:24:05;5.28;;;3.50;;
73452;SDS011;61687;56.232;43.854;2023-05-10T06:26:32;6.60;;;4.10;;
73452;SDS011;61687;56.232;43.854;2023-05-10T06:28:59;8.40;;;4.33;;
73452;SDS011;61687;56.232;43.854;2023-05-10T06:31:25;7.22;;;4.03;;
73452;SDS011;61687;56.232;43.854;2023-05-10T06:33:51;7.85;;;4.10;;
73452;SDS011;61687;56.232;43.854;2023-05-10T06:36:17;4.90;;;3.03;;
73452;SDS011;61687;56.232;43.854;2023-05-10T06:38:43;5.35;;;3.42;;
73452;SDS011;61687;56.232;43.854;2023-05-10T06:41:09;4.87;;;3.40;;
73452;SDS011;61687;56.232;43.854;2023-05-10T06:43:35;7.18;;;3.40;;
73452;SDS011;61687;56.232;43.854;2023-05-10T06:46:05;5.70;;;3.50;;
73452;SDS011;61687;56.232;43.854;2023-05-10T06:48:32;108.00;;;6.95;;
73452;SDS011;61687;56.232;43.854;2023-05-10T06:50:58;6.67;;;3.87;;
73452;SDS011;61687;56.232;43.854;2023-05-10T06:53:24;4.80;;;3.55;;
73452;SDS011;61687;56.232;43.854;2023-05-10T06:55:50;7.50;;;3.35;;
73452;SDS011;61687;56.232;43.854;2023-05-10T06:58:16;5.85;;;3.30;;
73452;SDS011;61687;56.232;43.854;2023-05-10T07:00:42;7.33;;;3.57;;
73452;SDS011;61687;56.232;43.854;2023-05-10T07:03:09;5.40;;;3.67;;
73452;SDS011;61687;56.232;43.854;2023-05-10T07:05:36;6.10;;;4.50;;
73452;SDS011;61687;56.232;43.854;2023-05-10T07:08:02;5.95;;;3.90;;
73452;SDS011;61687;56.232;43.854;2023-05-10T07:10:28;6.40;;;4.30;;
73452;SDS011;61687;56.232;43.854;2023-05-10T07:12:53;7.53;;;4.23;;
73452;SDS011;61687;56.232;43.854;2023-05-10T07:15:19;5.90;;;4.13;;
73452;SDS011;61687;56.232;43.854;2023-05-10T07:17:45;8.00;;;3.78;;
73452;SDS011;61687;56.232;43.854;2023-05-10T07:20:11;14.20;;;4.13;;
73452;SDS011;61687;56.232;43.854;2023-05-10T07:22:37;4.93;;;3.00;;
73452;SDS011;61687;56.232;43.854;2023-05-10T07:25:03;5.97;;;3.53;;
73452;SDS011;61687;56.232;43.854;2023-05-10T07:27:30;6.80;;;2.92;;
73452;SDS011;61687;56.232;43.854;2023-05-10T07:29:56;5.50;;;3.10;;
73452;SDS011;61687;56.232;43.854;2023-05-10T07:32:22;4.90;;;3.07;;
73452;SDS011;61687;56.232;43.854;2023-05-10T07:34:48;4.53;;;3.20;;
73452;SDS011;61687;56.232;43.854;2023-05-10T07:37:14;7.32;;;3.50;;
73452;SDS011;61687;56.232;43.854;2023-05-10T07:39:40;7.35;;;3.95;;
73452;SDS011;61687;56.232;43.854;2023-05-10T07:42:06;5.00;;;3.70;;
73452;SDS011;61687;56.232;43.854;2023-05-10T07:44:32;6.97;;;4.13;;
73452;SDS011;61687;56.232;43.854;2023-05-10T07:46:58;7.18;;;3.78;;
73452;SDS011;61687;56.232;43.854;2023-05-10T07:49:24;4.70;;;3.80;;
73452;SDS011;61687;56.232;43.854;2023-05-10T07:51:50;9.30;;;3.78;;
73452;SDS011;61687;56.232;43.854;2023-05-10T07:54:16;13.45;;;3.70;;
73452;SDS011;61687;56.232;43.854;2023-05-10T07:56:42;7.05;;;3.90;;
73452;SDS011;61687;56.232;43.854;2023-05-10T07:59:16;4.93;;;3.40;;
73452;SDS011;61687;56.232;43.854;2023-05-10T08:01:43;7.22;;;3.65;;
73452;SDS011;61687;56.232;43.854;2023-05-10T08:04:10;6.72;;;3.88;;
73452;SDS011;61687;56.232;43.854;2023-05-10T08:06:37;8.50;;;3.72;;
73452;SDS011;61687;56.232;43.854;2023-05-10T08:09:03;5.88;;;3.95;;
73452;SDS011;61687;56.232;43.854;2023-05-10T08:11:29;6.37;;;3.37;;
73452;SDS011;61687;56.232;43.854;2023-05-10T08:13:55;5.95;;;3.05;;
73452;SDS011;61687;56.232;43.854;2023-05-10T08:16:21;5.97;;;3.60;;
73452;SDS011;61687;56.232;43.854;2023-05-10T08:18:47;6.88;;;3.22;;
73452;SDS011;61687;56.232;43.854;2023-05-10T08:21:14;5.00;;;3.27;;
73452;SDS011;61687;56.232;43.854;2023-05-10T08:23:41;7.65;;;3.33;;
73452;SDS011;61687;56.232;43.854;2023-05-10T08:26:09;6.82;;;3.08;;
73452;SDS011;61687;56.232;43.854;2023-05-10T08:28:34;7.32;;;3.67;;
73452;SDS011;61687;56.232;43.854;2023-05-10T08:31:00;7.80;;;3.50;;
73452;SDS011;61687;56.232;43.854;2023-05-10T08:33:26;6.00;;;4.38;;
73452;SDS011;61687;56.232;43.854;2023-05-10T08:35:52;5.53;;;3.95;;
73452;SDS011;61687;56.232;43.854;2023-05-10T08:38:18;6.43;;;2.90;;
73452;SDS011;61687;56.232;43.854;2023-05-10T08:40:44;7.70;;;3.72;;
73452;SDS011;61687;56.232;43.854;2023-05-10T08:43:12;8.30;;;3.80;;
73452;SDS011;61687;56.232;43.854;2023-05-10T08:45:44;7.15;;;3.65;;
73452;SDS011;61687;56.232;43.854;2023-05-10T08:48:13;5.27;;;4.03;;
73452;SDS011;61687;56.232;43.854;2023-05-10T08:50:40;7.00;;;3.92;;
73452;SDS011;61687;56.232;43.854;2023-05-10T08:53:12;5.15;;;3.83;;
73452;SDS011;61687;56.232;43.854;2023-05-10T08:55:38;8.20;;;4.03;;
73452;SDS011;61687;56.232;43.854;2023-05-10T08:58:08;9.57;;;3.80;;
73452;SDS011;61687;56.232;43.854;2023-05-10T09:00:34;6.70;;;3.47;;
73452;SDS011;61687;56.232;43.854;2023-05-10T09:03:03;5.97;;;4.03;;
73452;SDS011;61687;56.232;43.854;2023-05-10T09:05:30;10.18;;;3.35;;
73452;SDS011;61687;56.232;43.854;2023-05-10T09:07:56;8.98;;;3.70;;
73452;SDS011;61687;56.232;43.854;2023-05-10T09:10:22;8.23;;;3.70;;
73452;SDS011;61687;56.232;43.854;2023-05-10T09:12:51;14.80;;;3.75;;
73452;SDS011;61687;56.232;43.854;2023-05-10T09:15:18;7.28;;;3.28;;
73452;SDS011;61687;56.232;43.854;2023-05-10T09:17:45;6.28;;;3.40;;
73452;SDS011;61687;56.232;43.854;2023-05-10T09:20:12;5.95;;;3.72;;
73452;SDS011;61687;56.232;43.854;2023-05-10T09:22:39;7.73;;;4.33;;
73452;SDS011;61687;56.232;43.854;2023-05-10T09:25:06;55.15;;;5.13;;
73452;SDS011;61687;56.232;43.854;2023-05-10T09:27:32;6.90;;;3.72;;
73452;SDS011;61687;56.232;43.854;2023-05-10T09:29:59;7.88;;;4.18;;
73452;SDS011;61687;56.232;43.854;2023-05-10T09:32:40;6.97;;;3.83;;
73452;SDS011;61687;56.232;43.854;2023-05-10T09:35:08;7.23;;;3.47;;
73452;SDS011;61687;56.232;43.854;2023-05-10T09:37:42;6.53;;;2.85;;
73452;SDS011;61687;56.232;43.854;2023-05-10T09:40:13;6.35;;;3.75;;
73452;SDS011;61687;56.232;43.854;2023-05-10T09:42:42;5.22;;;3.60;;
73452;SDS011;61687;56.232;43.854;2023-05-10T09:45:15;6.47;;;3.65;;
73452;SDS011;61687;56.232;43.854;2023-05-10T09:47:41;6.67;;;3.67;;
73452;SDS011;61687;56.232;43.854;2023-05-10T09:50:07;7.32;;;3.42;;
73452;SDS011;61687;56.232;43.854;2023-05-10T09:52:46;8.23;;;3.47;;
73452;SDS011;61687;56.232;43.854;2023-05-10T09:55:23;6.68;;;3.30;;
73452;SDS011;61687;56.232;43.854;2023-05-10T09:58:00;5.90;;;4.00;;
73452;SDS011;61687;56.232;43.854;2023-05-10T10:00:27;6.00;;;3.58;;
73452;SDS011;61687;56.232;43.854;2023-05-10T10:02:54;6.15;;;3.72;;
73452;SDS011;61687;56.232;43.854;2023-05-10T10:05:27;6.03;;;3.10;;
73452;SDS011;61687;56.232;43.854;2023-05-10T10:07:55;6.13;;;4.32;;
73452;SDS011;61687;56.232;43.854;2023-05-10T10:10:22;9.17;;;5.27;;
73452;SDS011;61687;56.232;43.854;2023-05-10T10:12:48;7.22;;;4.97;;
73452;SDS011;61687;56.232;43.854;2023-05-10T10:15:15;5.43;;;4.25;;
73452;SDS011;61687;56.232;43.854;2023-05-10T10:17:41;5.80;;;4.30;;
73452;SDS011;61687;56.232;43.854;2023-05-10T10:20:09;5.50;;;4.32;;
73452;SDS011;61687;56.232;43.854;2023-05-10T10:22:36;5.43;;;3.77;;
73452;SDS011;61687;56.232;43.854;2023-05-10T10:25:03;6.10;;;3.60;;
73452;SDS011;61687;56.232;43.854;2023-05-10T10:30:42;5.00;;;3.92;;
73452;SDS011;61687;56.232;43.854;2023-05-10T10:35:58;4.17;;;2.60;;
73452;SDS011;61687;56.232;43.854;2023-05-10T10:38:25;6.53;;;3.22;;
73452;SDS011;61687;56.232;43.854;2023-05-10T10:41:10;11.05;;;3.08;;
73452;SDS011;61687;56.232;43.854;2023-05-10T10:44:37;29.20;;;4.18;;
73452;SDS011;61687;56.232;43.854;2023-05-10T10:52:36;13.50;;;3.65;;
73452;SDS011;61687;56.232;43.854;2023-05-10T10:57:45;5.10;;;3.47;;
73452;SDS011;61687;56.232;43.854;2023-05-10T11:02:53;7.67;;;3.70;;
73452;SDS011;61687;56.232;43.854;2023-05-10T11:05:26;3.92;;;2.75;;
73452;SDS011;61687;56.232;43.854;2023-05-10T11:08:00;6.97;;;3.95;;
73452;SDS011;61687;56.232;43.854;2023-05-10T11:10:33;6.20;;;3.67;;
73452;SDS011;61687;56.232;43.854;2023-05-10T11:13:02;7.53;;;3.55;;
73452;SDS011;61687;56.232;43.854;2023-05-10T11:15:34;4.73;;;3.73;;
73452;SDS011;61687;56.232;43.854;2023-05-10T11:20:44;8.70;;;3.72;;
73452;SDS011;61687;56.232;43.854;2023-05-10T11:23:16;10.95;;;3.88;;
73452;SDS011;61687;56.232;43.854;2023-05-10T11:25:44;10.38;;;4.43;;
73452;SDS011;61687;56.232;43.854;2023-05-10T11:28:11;6.07;;;3.23;;
73452;SDS011;61687;56.232;43.854;2023-05-10T11:30:41;8.50;;;4.05;;
73452;SDS011;61687;56.232;43.854;2023-05-10T11:33:09;5.60;;;3.15;;
73452;SDS011;61687;56.232;43.854;2023-05-10T11:35:40;14.70;;;3.05;;
73452;SDS011;61687;56.232;43.854;2023-05-10T11:38:09;6.78;;;2.88;;
73452;SDS011;61687;56.232;43.854;2023-05-10T11:40:36;6.80;;;3.23;;
73452;SDS011;61687;56.232;43.854;2023-05-10T11:43:03;15.30;;;3.90;;
73452;SDS011;61687;56.232;43.854;2023-05-10T11:45:33;9.20;;;4.20;;
73452;SDS011;61687;56.232;43.854;2023-05-10T11:47:59;10.68;;;4.60;;
73452;SDS011;61687;56.232;43.854;2023-05-10T11:50:26;5.32;;;3.60;;
73452;SDS011;61687;56.232;43.854;2023-05-10T11:52:53;4.70;;;3.10;;
73452;SDS011;61687;56.232;43.854;2023-05-10T11:55:21;6.03;;;3.58;;
73452;SDS011;61687;56.232;43.854;2023-05-10T11:57:48;14.90;;;3.72;;
73452;SDS011;61687;56.232;43.854;2023-05-10T12:00:17;8.50;;;4.05;;
73452;SDS011;61687;56.232;43.854;2023-05-10T12:02:43;6.90;;;3.08;;
73452;SDS011;61687;56.232;43.854;2023-05-10T12:05:09;6.73;;;3.63;;
73452;SDS011;61687;56.232;43.854;2023-05-10T12:07:36;7.57;;;2.80;;
73452;SDS011;61687;56.232;43.854;2023-05-10T12:10:03;7.47;;;3.88;;
73452;SDS011;61687;56.232;43.854;2023-05-10T12:12:44;5.93;;;3.75;;
73452;SDS011;61687;56.232;43.854;2023-05-10T12:15:17;6.65;;;4.32;;
73452;SDS011;61687;56.232;43.854;2023-05-10T12:17:46;9.77;;;3.53;;
73452;SDS011;61687;56.232;43.854;2023-05-10T12:20:13;6.10;;;3.75;;
73452;SDS011;61687;56.232;43.854;2023-05-10T12:22:45;5.55;;;3.70;;
73452;SDS011;61687;56.232;43.854;2023-05-10T12:25:12;5.28;;;3.13;;
73452;SDS011;61687;56.232;43.854;2023-05-10T12:27:38;5.75;;;4.00;;
73452;SDS011;61687;56.232;43.854;2023-05-10T12:30:04;9.47;;;4.30;;
73452;SDS011;61687;56.232;43.854;2023-05-10T12:32:40;8.00;;;4.70;;
73452;SDS011;61687;56.232;43.854;2023-05-10T12:35:07;9.30;;;4.22;;
73452;SDS011;61687;56.232;43.854;2023-05-10T12:37:34;5.38;;;3.67;;
73452;SDS011;61687;56.232;43.854;2023-05-10T12:40:07;8.50;;;4.82;;
73452;SDS011;61687;56.232;43.854;2023-05-10T12:42:36;6.87;;;3.90;;
73452;SDS011;61687;56.232;43.854;2023-05-10T12:45:03;13.10;;;4.63;;
73452;SDS011;61687;56.232;43.854;2023-05-10T12:47:32;75.25;;;6.90;;
73452;SDS011;61687;56.232;43.854;2023-05-10T12:49:59;7.22;;;3.50;;
73452;SDS011;61687;56.232;43.854;2023-05-10T12:52:26;6.65;;;3.50;;
73452;SDS011;61687;56.232;43.854;2023-05-10T12:54:53;6.87;;;2.80;;
73452;SDS011;61687;56.232;43.854;2023-05-10T12:57:22;7.55;;;5.93;;
73452;SDS011;61687;56.232;43.854;2023-05-10T12:59:48;5.60;;;4.10;;
73452;SDS011;61687;56.232;43.854;2023-05-10T13:02:15;5.38;;;3.40;;
73452;SDS011;61687;56.232;43.854;2023-05-10T13:04:43;5.38;;;4.00;;
73452;SDS011;61687;56.232;43.854;2023-05-10T13:07:10;6.67;;;4.23;;
73452;SDS011;61687;56.232;43.854;2023-05-10T13:09:36;6.22;;;2.90;;
73452;SDS011;61687;56.232;43.854;2023-05-10T13:12:02;9.52;;;3.95;;
73452;SDS011;61687;56.232;43.854;2023-05-10T13:14:28;4.28;;;3.22;;
73452;SDS011;61687;56.232;43.854;2023-05-10T13:16:55;7.82;;;3.60;;
73452;SDS011;61687;56.232;43.854;2023-05-10T13:19:21;9.10;;;4.03;;
73452;SDS011;61687;56.232;43.854;2023-05-10T13:21:47;4.05;;;2.58;;
73452;SDS011;61687;56.232;43.854;2023-05-10T13:24:13;10.02;;;4.38;;
73452;SDS011;61687;56.232;43.854;2023-05-10T13:26:39;13.27;;;4.68;;
73452;SDS011;61687;56.232;43.854;2023-05-10T13:29:06;6.07;;;4.95;;
73452;SDS011;61687;56.232;43.854;2023-05-10T13:31:33;7.27;;;4.63;;
73452;SDS011;61687;56.232;43.854;2023-05-10T13:33:59;18.42;;;5.00;;
73452;SDS011;61687;56.232;43.854;2023-05-10T13:36:25;9.63;;;6.00;;
73452;SDS011;61687;56.232;43.854;2023-05-10T13:38:51;6.63;;;4.93;;
73452;SDS011;61687;56.232;43.854;2023-05-10T13:41:17;7.43;;;4.67;;
73452;SDS011;61687;56.232;43.854;2023-05-10T13:43:43;6.45;;;3.88;;
73452;SDS011;61687;56.232;43.854;2023-05-10T13:46:09;10.68;;;4.55;;
73452;SDS011;61687;56.232;43.854;2023-05-10T13:48:36;7.70;;;3.92;;
73452;SDS011;61687;56.232;43.854;2023-05-10T13:51:04;10.30;;;4.75;;
73452;SDS011;61687;56.232;43.854;2023-05-10T13:53:30;5.97;;;3.77;;
73452;SDS011;61687;56.232;43.854;2023-05-10T13:55:56;7.82;;;4.65;;
73452;SDS011;61687;56.232;43.854;2023-05-10T13:58:22;9.50;;;4.35;;
73452;SDS011;61687;56.232;43.854;2023-05-10T14:00:48;6.63;;;4.18;;
73452;SDS011;61687;56.232;43.854;2023-05-10T14:03:14;10.60;;;4.60;;
73452;SDS011;61687;56.232;43.854;2023-05-10T14:05:40;6.53;;;4.30;;
73452;SDS011;61687;56.232;43.854;2023-05-10T14:08:06;12.20;;;4.00;;
73452;SDS011;61687;56.232;43.854;2023-05-10T14:10:34;17.37;;;3.57;;
73452;SDS011;61687;56.232;43.854;2023-05-10T14:13:00;19.52;;;3.95;;
73452;SDS011;61687;56.232;43.854;2023-05-10T14:15:26;5.18;;;4.30;;
73452;SDS011;61687;56.232;43.854;2023-05-10T14:17:52;6.20;;;3.70;;
73452;SDS011;61687;56.232;43.854;2023-05-10T14:20:18;7.73;;;3.93;;
73452;SDS011;61687;56.232;43.854;2023-05-10T14:22:44;4.10;;;2.80;;
73452;SDS011;61687;56.232;43.854;2023-05-10T14:25:10;5.90;;;3.30;;
73452;SDS011;61687;56.232;43.854;2023-05-10T14:27:36;9.52;;;3.80;;
73452;SDS011;61687;56.232;43.854;2023-05-10T14:30:02;8.70;;;3.30;;
73452;SDS011;61687;56.232;43.854;2023-05-10T14:32:31;6.95;;;3.83;;
73452;SDS011;61687;56.232;43.854;2023-05-10T14:34:57;6.60;;;2.80;;
73452;SDS011;61687;56.232;43.854;2023-05-10T14:37:23;6.53;;;3.15;;
73452;SDS011;61687;56.232;43.854;2023-05-10T14:39:49;10.27;;;3.40;;
73452;SDS011;61687;56.232;43.854;2023-05-10T14:42:14;6.05;;;3.28;;
73452;SDS011;61687;56.232;43.854;2023-05-10T14:44:40;4.50;;;3.60;;
73452;SDS011;61687;56.232;43.854;2023-05-10T14:47:06;9.27;;;2.93;;
73452;SDS011;61687;56.232;43.854;2023-05-10T14:49:32;5.13;;;3.92;;
73452;SDS011;61687;56.232;43.854;2023-05-10T14:51:58;5.72;;;3.92;;
73452;SDS011;61687;56.232;43.854;2023-05-10T14:54:24;4.50;;;2.73;;
73452;SDS011;61687;56.232;43.854;2023-05-10T14:56:50;6.10;;;3.22;;
73452;SDS011;61687;56.232;43.854;2023-05-10T14:59:15;13.20;;;3.47;;
73452;SDS011;61687;56.232;43.854;2023-05-10T15:01:41;5.83;;;3.17;;